sensor_id;sensor_type;location;lat;lon;timestamp;P1;P2;P0
80643;PMS5003;70010;60.224;24.712;2023-07-09T00:00:31;7;7;
80643;PMS5003;70010;60.224;24.712;2023-07-09T00:02:56;9;8;
80643;PMS5003;70010;60.224;24.712;2023-07-09T00:05:21;7;7;
80643;PMS5003;70010;60.224;24.712;2023-07-09T00:07:47;7;7;
80643;PMS5003;70010;60.224;24.712;2023-07-09T00:10:13;5;5;
80643;PMS5003;70010;60.224;24.712;2023-07-09T00:12:38;8;6;
80643;PMS5003;70010;60.224;24.712;2023-07-09T00:15:03;8;8;
80643;PMS5003;70010;60.224;24.712;2023-07-09T00:17:29;8;7;
80643;PMS5003;70010;60.224;24.712;2023-07-09T00:19:53;6;6;
80643;PMS5003;70010;60.224;24.712;2023-07-09T00:22:19;11;8;
80643;PMS5003;70010;60.224;24.712;2023-07-09T00:24:45;7;7;
80643;PMS5003;70010;60.224;24.712;2023-07-09T00:27:10;9;8;
80643;PMS5003;70010;60.224;24.712;2023-07-09T00:29:35;11;11;
80643;PMS5003;70010;60.224;24.712;2023-07-09T00:32:00;9;8;
80643;PMS5003;70010;60.224;24.712;2023-07-09T00:34:26;5;5;
80643;PMS5003;70010;60.224;24.712;2023-07-09T00:36:51;9;5;
80643;PMS5003;70010;60.224;24.712;2023-07-09T00:39:17;7;5;
80643;PMS5003;70010;60.224;24.712;2023-07-09T00:41:42;6;6;
80643;PMS5003;70010;60.224;24.712;2023-07-09T00:48:59;7;6;
80643;PMS5003;70010;60.224;24.712;2023-07-09T00:51:23;7;7;
80643;PMS5003;70010;60.224;24.712;2023-07-09T00:53:49;5;5;
80643;PMS5003;70010;60.224;24.712;2023-07-09T00:56:16;8;7;
80643;PMS5003;70010;60.224;24.712;2023-07-09T00:58:39;5;5;
80643;PMS5003;70010;60.224;24.712;2023-07-09T01:01:06;9;8;
80643;PMS5003;70010;60.224;24.712;2023-07-09T01:03:31;7;6;
80643;PMS5003;70010;60.224;24.712;2023-07-09T01:05:55;7;5;
80643;PMS5003;70010;60.224;24.712;2023-07-09T01:08:20;5;4;
80643;PMS5003;70010;60.224;24.712;2023-07-09T01:10:46;5;4;
80643;PMS5003;70010;60.224;24.712;2023-07-09T01:13:11;7;7;
80643;PMS5003;70010;60.224;24.712;2023-07-09T01:15:36;5;5;
80643;PMS5003;70010;60.224;24.712;2023-07-09T01:18:02;6;6;
80643;PMS5003;70010;60.224;24.712;2023-07-09T01:20:27;6;6;
80643;PMS5003;70010;60.224;24.712;2023-07-09T01:22:52;9;6;
80643;PMS5003;70010;60.224;24.712;2023-07-09T01:25:17;7;5;
80643;PMS5003;70010;60.224;24.712;2023-07-09T01:27:43;3;3;
80643;PMS5003;70010;60.224;24.712;2023-07-09T01:30:11;5;4;
80643;PMS5003;70010;60.224;24.712;2023-07-09T01:32:33;6;5;
80643;PMS5003;70010;60.224;24.712;2023-07-09T01:35:00;5;5;
80643;PMS5003;70010;60.224;24.712;2023-07-09T01:37:26;7;7;
80643;PMS5003;70010;60.224;24.712;2023-07-09T01:39:49;5;5;
80643;PMS5003;70010;60.224;24.712;2023-07-09T01:42:14;6;6;
80643;PMS5003;70010;60.224;24.712;2023-07-09T01:44:40;8;5;
80643;PMS5003;70010;60.224;24.712;2023-07-09T01:47:05;6;6;
80643;PMS5003;70010;60.224;24.712;2023-07-09T01:49:30;4;4;
80643;PMS5003;70010;60.224;24.712;2023-07-09T01:51:55;4;4;
80643;PMS5003;70010;60.224;24.712;2023-07-09T01:54:21;5;4;
80643;PMS5003;70010;60.224;24.712;2023-07-09T01:56:46;7;6;
80643;PMS5003;70010;60.224;24.712;2023-07-09T01:59:12;6;6;
80643;PMS5003;70010;60.224;24.712;2023-07-09T02:01:38;7;7;
80643;PMS5003;70010;60.224;24.712;2023-07-09T02:04:03;6;4;
80643;PMS5003;70010;60.224;24.712;2023-07-09T02:06:28;5;3;
80643;PMS5003;70010;60.224;24.712;2023-07-09T02:08:53;5;5;
80643;PMS5003;70010;60.224;24.712;2023-07-09T02:11:19;4;4;
80643;PMS5003;70010;60.224;24.712;2023-07-09T02:13:44;8;5;
80643;PMS5003;70010;60.224;24.712;2023-07-09T02:16:09;7;5;
80643;PMS5003;70010;60.224;24.712;2023-07-09T02:18:35;8;6;
80643;PMS5003;70010;60.224;24.712;2023-07-09T02:21:00;6;6;
80643;PMS5003;70010;60.224;24.712;2023-07-09T02:23:26;6;5;
80643;PMS5003;70010;60.224;24.712;2023-07-09T02:25:51;5;5;
80643;PMS5003;70010;60.224;24.712;2023-07-09T02:28:16;5;5;
80643;PMS5003;70010;60.224;24.712;2023-07-09T02:30:41;5;4;
80643;PMS5003;70010;60.224;24.712;2023-07-09T02:33:06;5;5;
80643;PMS5003;70010;60.224;24.712;2023-07-09T02:35:32;6;5;
80643;PMS5003;70010;60.224;24.712;2023-07-09T02:37:57;5;5;
80643;PMS5003;70010;60.224;24.712;2023-07-09T02:40:22;4;4;
80643;PMS5003;70010;60.224;24.712;2023-07-09T02:42:48;6;5;
80643;PMS5003;70010;60.224;24.712;2023-07-09T02:45:13;6;6;
80643;PMS5003;70010;60.224;24.712;2023-07-09T02:47:38;5;5;
80643;PMS5003;70010;60.224;24.712;2023-07-09T02:50:04;7;6;
80643;PMS5003;70010;60.224;24.712;2023-07-09T02:52:29;4;4;
80643;PMS5003;70010;60.224;24.712;2023-07-09T02:54:54;6;5;
80643;PMS5003;70010;60.224;24.712;2023-07-09T02:57:19;5;5;
80643;PMS5003;70010;60.224;24.712;2023-07-09T02:59:44;3;3;
80643;PMS5003;70010;60.224;24.712;2023-07-09T03:02:10;4;4;
80643;PMS5003;70010;60.224;24.712;2023-07-09T03:04:36;5;4;
80643;PMS5003;70010;60.224;24.712;2023-07-09T03:07:01;5;5;
80643;PMS5003;70010;60.224;24.712;2023-07-09T03:09:26;5;5;
80643;PMS5003;70010;60.224;24.712;2023-07-09T03:11:51;3;3;
80643;PMS5003;70010;60.224;24.712;2023-07-09T03:14:17;5;5;
80643;PMS5003;70010;60.224;24.712;2023-07-09T03:16:42;5;5;
80643;PMS5003;70010;60.224;24.712;2023-07-09T03:19:07;5;5;
80643;PMS5003;70010;60.224;24.712;2023-07-09T03:21:33;3;3;
80643;PMS5003;70010;60.224;24.712;2023-07-09T03:23:58;7;7;
80643;PMS5003;70010;60.224;24.712;2023-07-09T03:26:23;5;5;
80643;PMS5003;70010;60.224;24.712;2023-07-09T03:28:48;7;4;
80643;PMS5003;70010;60.224;24.712;2023-07-09T03:31:14;4;4;
80643;PMS5003;70010;60.224;24.712;2023-07-09T03:33:39;4;4;
80643;PMS5003;70010;60.224;24.712;2023-07-09T03:36:04;4;4;
80643;PMS5003;70010;60.224;24.712;2023-07-09T03:38:30;6;6;
80643;PMS5003;70010;60.224;24.712;2023-07-09T03:40:55;12;8;
80643;PMS5003;70010;60.224;24.712;2023-07-09T03:43:21;4;4;
80643;PMS5003;70010;60.224;24.712;2023-07-09T03:45:46;4;4;
80643;PMS5003;70010;60.224;24.712;2023-07-09T03:48:11;4;4;
80643;PMS5003;70010;60.224;24.712;2023-07-09T03:50:36;5;4;
80643;PMS5003;70010;60.224;24.712;2023-07-09T03:53:03;4;4;
80643;PMS5003;70010;60.224;24.712;2023-07-09T03:55:27;4;4;
80643;PMS5003;70010;60.224;24.712;2023-07-09T03:57:52;4;4;
80643;PMS5003;70010;60.224;24.712;2023-07-09T04:00:18;4;4;
80643;PMS5003;70010;60.224;24.712;2023-07-09T04:02:43;5;3;
80643;PMS5003;70010;60.224;24.712;2023-07-09T04:05:08;5;5;
80643;PMS5003;70010;60.224;24.712;2023-07-09T04:07:33;4;4;
80643;PMS5003;70010;60.224;24.712;2023-07-09T04:09:59;3;3;
80643;PMS5003;70010;60.224;24.712;2023-07-09T04:12:24;6;6;
80643;PMS5003;70010;60.224;24.712;2023-07-09T04:14:49;4;4;
80643;PMS5003;70010;60.224;24.712;2023-07-09T04:17:14;6;5;
80643;PMS5003;70010;60.224;24.712;2023-07-09T04:19:40;6;5;
80643;PMS5003;70010;60.224;24.712;2023-07-09T04:22:05;5;5;
80643;PMS5003;70010;60.224;24.712;2023-07-09T04:24:30;2;2;
80643;PMS5003;70010;60.224;24.712;2023-07-09T04:26:55;3;3;
80643;PMS5003;70010;60.224;24.712;2023-07-09T04:29:21;3;3;
80643;PMS5003;70010;60.224;24.712;2023-07-09T04:31:46;4;4;
80643;PMS5003;70010;60.224;24.712;2023-07-09T04:34:11;4;4;
80643;PMS5003;70010;60.224;24.712;2023-07-09T04:36:36;3;3;
80643;PMS5003;70010;60.224;24.712;2023-07-09T04:39:02;5;5;
80643;PMS5003;70010;60.224;24.712;2023-07-09T04:41:28;4;3;
80643;PMS5003;70010;60.224;24.712;2023-07-09T04:43:53;4;4;
80643;PMS5003;70010;60.224;24.712;2023-07-09T04:46:18;4;4;
80643;PMS5003;70010;60.224;24.712;2023-07-09T04:48:43;6;5;
80643;PMS5003;70010;60.224;24.712;2023-07-09T04:51:09;1;1;
80643;PMS5003;70010;60.224;24.712;2023-07-09T04:53:34;4;3;
80643;PMS5003;70010;60.224;24.712;2023-07-09T04:55:59;4;4;
80643;PMS5003;70010;60.224;24.712;2023-07-09T04:58:24;2;2;
80643;PMS5003;70010;60.224;24.712;2023-07-09T05:00:50;7;4;
80643;PMS5003;70010;60.224;24.712;2023-07-09T05:03:15;3;3;
80643;PMS5003;70010;60.224;24.712;2023-07-09T05:05:42;3;3;
80643;PMS5003;70010;60.224;24.712;2023-07-09T05:08:05;3;3;
80643;PMS5003;70010;60.224;24.712;2023-07-09T05:10:31;4;3;
80643;PMS5003;70010;60.224;24.712;2023-07-09T05:12:56;5;4;
80643;PMS5003;70010;60.224;24.712;2023-07-09T05:15:22;4;4;
80643;PMS5003;70010;60.224;24.712;2023-07-09T05:17:47;4;3;
80643;PMS5003;70010;60.224;24.712;2023-07-09T05:20:12;4;3;
80643;PMS5003;70010;60.224;24.712;2023-07-09T05:22:37;4;4;
80643;PMS5003;70010;60.224;24.712;2023-07-09T05:25:02;4;4;
80643;PMS5003;70010;60.224;24.712;2023-07-09T05:27:28;5;4;
80643;PMS5003;70010;60.224;24.712;2023-07-09T05:29:53;4;3;
80643;PMS5003;70010;60.224;24.712;2023-07-09T05:32:18;3;3;
80643;PMS5003;70010;60.224;24.712;2023-07-09T05:34:43;2;2;
80643;PMS5003;70010;60.224;24.712;2023-07-09T05:37:09;4;4;
80643;PMS5003;70010;60.224;24.712;2023-07-09T05:39:34;4;4;
80643;PMS5003;70010;60.224;24.712;2023-07-09T05:41:59;3;2;
80643;PMS5003;70010;60.224;24.712;2023-07-09T05:44:24;3;3;
80643;PMS5003;70010;60.224;24.712;2023-07-09T05:46:50;5;3;
80643;PMS5003;70010;60.224;24.712;2023-07-09T05:49:15;4;4;
80643;PMS5003;70010;60.224;24.712;2023-07-09T05:51:40;2;2;
80643;PMS5003;70010;60.224;24.712;2023-07-09T05:54:05;3;3;
80643;PMS5003;70010;60.224;24.712;2023-07-09T05:56:31;4;3;
80643;PMS5003;70010;60.224;24.712;2023-07-09T05:58:56;3;3;
80643;PMS5003;70010;60.224;24.712;2023-07-09T06:01:21;3;3;
80643;PMS5003;70010;60.224;24.712;2023-07-09T06:03:46;4;4;
80643;PMS5003;70010;60.224;24.712;2023-07-09T06:06:12;4;4;
80643;PMS5003;70010;60.224;24.712;2023-07-09T06:08:37;3;3;
80643;PMS5003;70010;60.224;24.712;2023-07-09T06:11:02;7;5;
80643;PMS5003;70010;60.224;24.712;2023-07-09T06:13:28;6;6;
80643;PMS5003;70010;60.224;24.712;2023-07-09T06:15:53;5;5;
80643;PMS5003;70010;60.224;24.712;2023-07-09T06:18:18;4;4;
80643;PMS5003;70010;60.224;24.712;2023-07-09T06:20:46;3;3;
80643;PMS5003;70010;60.224;24.712;2023-07-09T06:23:09;5;4;
80643;PMS5003;70010;60.224;24.712;2023-07-09T06:25:34;6;4;
80643;PMS5003;70010;60.224;24.712;2023-07-09T06:27:59;5;4;
80643;PMS5003;70010;60.224;24.712;2023-07-09T06:30:24;3;2;
80643;PMS5003;70010;60.224;24.712;2023-07-09T06:32:50;4;4;
80643;PMS5003;70010;60.224;24.712;2023-07-09T06:35:15;6;4;
80643;PMS5003;70010;60.224;24.712;2023-07-09T06:37:40;4;3;
80643;PMS5003;70010;60.224;24.712;2023-07-09T06:40:06;2;1;
80643;PMS5003;70010;60.224;24.712;2023-07-09T06:42:31;4;4;
80643;PMS5003;70010;60.224;24.712;2023-07-09T06:44:56;4;4;
80643;PMS5003;70010;60.224;24.712;2023-07-09T06:47:21;3;3;
80643;PMS5003;70010;60.224;24.712;2023-07-09T06:49:46;3;3;
80643;PMS5003;70010;60.224;24.712;2023-07-09T06:52:12;4;4;
80643;PMS5003;70010;60.224;24.712;2023-07-09T06:54:37;2;2;
80643;PMS5003;70010;60.224;24.712;2023-07-09T06:57:02;4;2;
80643;PMS5003;70010;60.224;24.712;2023-07-09T06:59:27;4;3;
80643;PMS5003;70010;60.224;24.712;2023-07-09T07:01:53;3;3;
80643;PMS5003;70010;60.224;24.712;2023-07-09T07:04:18;3;3;
80643;PMS5003;70010;60.224;24.712;2023-07-09T07:06:44;3;3;
80643;PMS5003;70010;60.224;24.712;2023-07-09T07:09:08;5;4;
80643;PMS5003;70010;60.224;24.712;2023-07-09T07:11:34;2;2;
80643;PMS5003;70010;60.224;24.712;2023-07-09T07:13:59;3;3;
80643;PMS5003;70010;60.224;24.712;2023-07-09T07:16:24;5;3;
80643;PMS5003;70010;60.224;24.712;2023-07-09T07:18:49;3;3;
80643;PMS5003;70010;60.224;24.712;2023-07-09T07:21:15;3;3;
80643;PMS5003;70010;60.224;24.712;2023-07-09T07:23:40;4;3;
80643;PMS5003;70010;60.224;24.712;2023-07-09T07:26:05;4;3;
80643;PMS5003;70010;60.224;24.712;2023-07-09T07:28:30;1;1;
80643;PMS5003;70010;60.224;24.712;2023-07-09T07:30:59;1;1;
80643;PMS5003;70010;60.224;24.712;2023-07-09T07:33:21;2;2;
80643;PMS5003;70010;60.224;24.712;2023-07-09T07:35:46;1;1;
80643;PMS5003;70010;60.224;24.712;2023-07-09T07:38:11;1;1;
80643;PMS5003;70010;60.224;24.712;2023-07-09T07:40:37;4;3;
80643;PMS5003;70010;60.224;24.712;2023-07-09T07:43:02;2;2;
80643;PMS5003;70010;60.224;24.712;2023-07-09T07:45:27;2;1;
80643;PMS5003;70010;60.224;24.712;2023-07-09T07:47:52;1;1;
80643;PMS5003;70010;60.224;24.712;2023-07-09T07:50:18;2;2;
80643;PMS5003;70010;60.224;24.712;2023-07-09T07:52:43;1;1;
80643;PMS5003;70010;60.224;24.712;2023-07-09T07:55:08;3;3;
80643;PMS5003;70010;60.224;24.712;2023-07-09T07:57:33;2;2;
80643;PMS5003;70010;60.224;24.712;2023-07-09T07:59:59;2;2;
80643;PMS5003;70010;60.224;24.712;2023-07-09T08:02:24;2;2;
80643;PMS5003;70010;60.224;24.712;2023-07-09T08:04:49;1;1;
80643;PMS5003;70010;60.224;24.712;2023-07-09T08:07:16;2;2;
80643;PMS5003;70010;60.224;24.712;2023-07-09T08:09:40;3;2;
80643;PMS5003;70010;60.224;24.712;2023-07-09T08:12:05;1;1;
80643;PMS5003;70010;60.224;24.712;2023-07-09T08:14:30;1;1;
80643;PMS5003;70010;60.224;24.712;2023-07-09T08:16:56;2;1;
80643;PMS5003;70010;60.224;24.712;2023-07-09T08:19:21;1;1;
80643;PMS5003;70010;60.224;24.712;2023-07-09T08:21:46;1;1;
80643;PMS5003;70010;60.224;24.712;2023-07-09T08:24:12;1;1;
80643;PMS5003;70010;60.224;24.712;2023-07-09T08:26:36;0;0;
80643;PMS5003;70010;60.224;24.712;2023-07-09T08:29:02;0;0;
80643;PMS5003;70010;60.224;24.712;2023-07-09T08:31:27;1;1;
80643;PMS5003;70010;60.224;24.712;2023-07-09T08:33:52;0;0;
80643;PMS5003;70010;60.224;24.712;2023-07-09T08:36:17;2;1;
80643;PMS5003;70010;60.224;24.712;2023-07-09T08:38:43;1;0;
80643;PMS5003;70010;60.224;24.712;2023-07-09T08:41:08;0;0;
80643;PMS5003;70010;60.224;24.712;2023-07-09T08:43:34;0;0;
80643;PMS5003;70010;60.224;24.712;2023-07-09T08:46:02;0;0;
80643;PMS5003;70010;60.224;24.712;2023-07-09T08:48:25;0;0;
80643;PMS5003;70010;60.224;24.712;2023-07-09T08:50:50;1;1;
80643;PMS5003;70010;60.224;24.712;2023-07-09T08:53:17;0;0;
80643;PMS5003;70010;60.224;24.712;2023-07-09T08:55:40;0;0;
80643;PMS5003;70010;60.224;24.712;2023-07-09T08:58:05;0;0;
80643;PMS5003;70010;60.224;24.712;2023-07-09T09:00:31;0;0;
80643;PMS5003;70010;60.224;24.712;2023-07-09T09:02:56;0;0;
80643;PMS5003;70010;60.224;24.712;2023-07-09T09:05:20;0;0;
80643;PMS5003;70010;60.224;24.712;2023-07-09T09:07:47;0;0;
80643;PMS5003;70010;60.224;24.712;2023-07-09T09:10:12;0;0;
80643;PMS5003;70010;60.224;24.712;2023-07-09T09:12:37;0;0;
80643;PMS5003;70010;60.224;24.712;2023-07-09T09:15:03;1;1;
80643;PMS5003;70010;60.224;24.712;2023-07-09T09:17:27;1;1;
80643;PMS5003;70010;60.224;24.712;2023-07-09T09:19:53;1;1;
80643;PMS5003;70010;60.224;24.712;2023-07-09T09:22:18;0;0;
80643;PMS5003;70010;60.224;24.712;2023-07-09T09:24:47;0;0;
80643;PMS5003;70010;60.224;24.712;2023-07-09T09:27:07;1;1;
80643;PMS5003;70010;60.224;24.712;2023-07-09T09:29:33;2;1;
80643;PMS5003;70010;60.224;24.712;2023-07-09T09:31:58;0;0;
80643;PMS5003;70010;60.224;24.712;2023-07-09T09:34:25;0;0;
80643;PMS5003;70010;60.224;24.712;2023-07-09T09:36:48;0;0;
80643;PMS5003;70010;60.224;24.712;2023-07-09T09:39:14;0;0;
80643;PMS5003;70010;60.224;24.712;2023-07-09T09:41:39;1;1;
80643;PMS5003;70010;60.224;24.712;2023-07-09T09:44:04;0;0;
80643;PMS5003;70010;60.224;24.712;2023-07-09T09:46:30;0;0;
80643;PMS5003;70010;60.224;24.712;2023-07-09T09:48:56;0;0;
80643;PMS5003;70010;60.224;24.712;2023-07-09T09:51:20;1;1;
80643;PMS5003;70010;60.224;24.712;2023-07-09T09:53:47;0;0;
80643;PMS5003;70010;60.224;24.712;2023-07-09T09:56:13;0;0;
80643;PMS5003;70010;60.224;24.712;2023-07-09T09:58:39;0;0;
80643;PMS5003;70010;60.224;24.712;2023-07-09T10:01:01;0;0;
80643;PMS5003;70010;60.224;24.712;2023-07-09T10:05:52;0;0;
80643;PMS5003;70010;60.224;24.712;2023-07-09T10:08:17;0;0;
80643;PMS5003;70010;60.224;24.712;2023-07-09T10:10:42;1;1;
80643;PMS5003;70010;60.224;24.712;2023-07-09T10:13:10;1;1;
80643;PMS5003;70010;60.224;24.712;2023-07-09T10:15:34;0;0;
80643;PMS5003;70010;60.224;24.712;2023-07-09T10:17:59;0;0;
80643;PMS5003;70010;60.224;24.712;2023-07-09T10:20:24;1;0;
80643;PMS5003;70010;60.224;24.712;2023-07-09T10:22:50;2;1;
80643;PMS5003;70010;60.224;24.712;2023-07-09T10:25:16;0;0;
80643;PMS5003;70010;60.224;24.712;2023-07-09T10:27:41;0;0;
80643;PMS5003;70010;60.224;24.712;2023-07-09T10:32:33;1;1;
80643;PMS5003;70010;60.224;24.712;2023-07-09T10:34:55;2;0;
80643;PMS5003;70010;60.224;24.712;2023-07-09T10:37:23;1;1;
80643;PMS5003;70010;60.224;24.712;2023-07-09T10:39:46;2;1;
80643;PMS5003;70010;60.224;24.712;2023-07-09T10:42:12;1;1;
80643;PMS5003;70010;60.224;24.712;2023-07-09T10:44:36;1;1;
80643;PMS5003;70010;60.224;24.712;2023-07-09T10:47:02;1;1;
80643;PMS5003;70010;60.224;24.712;2023-07-09T10:49:29;2;2;
80643;PMS5003;70010;60.224;24.712;2023-07-09T10:51:52;1;1;
80643;PMS5003;70010;60.224;24.712;2023-07-09T10:54:19;2;1;
80643;PMS5003;70010;60.224;24.712;2023-07-09T10:56:42;0;0;
80643;PMS5003;70010;60.224;24.712;2023-07-09T10:59:11;1;1;
80643;PMS5003;70010;60.224;24.712;2023-07-09T11:01:34;0;0;
80643;PMS5003;70010;60.224;24.712;2023-07-09T11:03:59;1;1;
80643;PMS5003;70010;60.224;24.712;2023-07-09T11:06:24;0;0;
80643;PMS5003;70010;60.224;24.712;2023-07-09T11:08:49;0;0;
80643;PMS5003;70010;60.224;24.712;2023-07-09T11:11:17;0;0;
80643;PMS5003;70010;60.224;24.712;2023-07-09T11:13:40;1;1;
80643;PMS5003;70010;60.224;24.712;2023-07-09T11:16:04;0;0;
80643;PMS5003;70010;60.224;24.712;2023-07-09T11:18:30;2;2;
80643;PMS5003;70010;60.224;24.712;2023-07-09T11:20:55;2;2;
80643;PMS5003;70010;60.224;24.712;2023-07-09T11:23:21;0;0;
80643;PMS5003;70010;60.224;24.712;2023-07-09T11:25:46;2;1;
80643;PMS5003;70010;60.224;24.712;2023-07-09T11:28:11;0;0;
80643;PMS5003;70010;60.224;24.712;2023-07-09T11:33:02;1;1;
80643;PMS5003;70010;60.224;24.712;2023-07-09T11:35:27;0;0;
80643;PMS5003;70010;60.224;24.712;2023-07-09T11:37:51;1;1;
80643;PMS5003;70010;60.224;24.712;2023-07-09T11:40:17;1;0;
80643;PMS5003;70010;60.224;24.712;2023-07-09T11:42:47;2;2;
80643;PMS5003;70010;60.224;24.712;2023-07-09T11:45:08;1;1;
80643;PMS5003;70010;60.224;24.712;2023-07-09T11:47:34;1;1;
80643;PMS5003;70010;60.224;24.712;2023-07-09T11:49:58;2;2;
80643;PMS5003;70010;60.224;24.712;2023-07-09T11:52:24;1;1;
80643;PMS5003;70010;60.224;24.712;2023-07-09T11:54:48;1;1;
80643;PMS5003;70010;60.224;24.712;2023-07-09T11:57:13;2;2;
80643;PMS5003;70010;60.224;24.712;2023-07-09T11:59:39;0;0;
80643;PMS5003;70010;60.224;24.712;2023-07-09T12:02:04;2;2;
80643;PMS5003;70010;60.224;24.712;2023-07-09T12:04:30;2;2;
80643;PMS5003;70010;60.224;24.712;2023-07-09T12:06:56;3;2;
80643;PMS5003;70010;60.224;24.712;2023-07-09T12:09:20;2;2;
80643;PMS5003;70010;60.224;24.712;2023-07-09T12:11:46;2;2;
80643;PMS5003;70010;60.224;24.712;2023-07-09T12:14:10;4;2;
80643;PMS5003;70010;60.224;24.712;2023-07-09T12:16:36;2;2;
80643;PMS5003;70010;60.224;24.712;2023-07-09T12:19:00;2;2;
80643;PMS5003;70010;60.224;24.712;2023-07-09T12:21:26;1;1;
80643;PMS5003;70010;60.224;24.712;2023-07-09T12:23:52;2;2;
80643;PMS5003;70010;60.224;24.712;2023-07-09T12:26:17;4;2;
80643;PMS5003;70010;60.224;24.712;2023-07-09T12:28:41;4;3;
80643;PMS5003;70010;60.224;24.712;2023-07-09T12:31:10;2;2;
80643;PMS5003;70010;60.224;24.712;2023-07-09T12:33:32;1;1;
80643;PMS5003;70010;60.224;24.712;2023-07-09T12:35:58;2;2;
80643;PMS5003;70010;60.224;24.712;2023-07-09T12:38:23;3;3;
80643;PMS5003;70010;60.224;24.712;2023-07-09T12:40:48;1;1;
80643;PMS5003;70010;60.224;24.712;2023-07-09T12:43:13;1;1;
80643;PMS5003;70010;60.224;24.712;2023-07-09T12:45:38;3;2;
80643;PMS5003;70010;60.224;24.712;2023-07-09T12:48:04;1;1;
80643;PMS5003;70010;60.224;24.712;2023-07-09T12:50:29;1;1;
80643;PMS5003;70010;60.224;24.712;2023-07-09T12:52:54;2;2;
80643;PMS5003;70010;60.224;24.712;2023-07-09T12:55:20;3;1;
80643;PMS5003;70010;60.224;24.712;2023-07-09T12:57:44;2;2;
80643;PMS5003;70010;60.224;24.712;2023-07-09T13:00:12;0;0;
80643;PMS5003;70010;60.224;24.712;2023-07-09T13:02:37;2;2;
80643;PMS5003;70010;60.224;24.712;2023-07-09T13:05:01;2;2;
80643;PMS5003;70010;60.224;24.712;2023-07-09T13:07:27;3;2;
80643;PMS5003;70010;60.224;24.712;2023-07-09T13:09:51;2;2;
80643;PMS5003;70010;60.224;24.712;2023-07-09T13:12:16;2;2;
80643;PMS5003;70010;60.224;24.712;2023-07-09T13:14:41;2;2;
80643;PMS5003;70010;60.224;24.712;2023-07-09T13:17:07;3;1;
80643;PMS5003;70010;60.224;24.712;2023-07-09T13:19:32;3;1;
80643;PMS5003;70010;60.224;24.712;2023-07-09T13:21:57;1;1;
80643;PMS5003;70010;60.224;24.712;2023-07-09T13:24:23;2;2;
80643;PMS5003;70010;60.224;24.712;2023-07-09T13:26:48;2;2;
80643;PMS5003;70010;60.224;24.712;2023-07-09T13:29:13;3;2;
80643;PMS5003;70010;60.224;24.712;2023-07-09T13:31:38;3;3;
80643;PMS5003;70010;60.224;24.712;2023-07-09T13:34:04;3;2;
80643;PMS5003;70010;60.224;24.712;2023-07-09T13:36:29;4;2;
80643;PMS5003;70010;60.224;24.712;2023-07-09T13:38:54;2;2;
80643;PMS5003;70010;60.224;24.712;2023-07-09T13:41:19;1;1;
80643;PMS5003;70010;60.224;24.712;2023-07-09T13:43:45;2;1;
80643;PMS5003;70010;60.224;24.712;2023-07-09T13:46:10;5;3;
80643;PMS5003;70010;60.224;24.712;2023-07-09T13:48:35;4;4;
80643;PMS5003;70010;60.224;24.712;2023-07-09T13:51:00;2;2;
80643;PMS5003;70010;60.224;24.712;2023-07-09T13:53:26;2;2;
80643;PMS5003;70010;60.224;24.712;2023-07-09T13:55:51;3;3;
80643;PMS5003;70010;60.224;24.712;2023-07-09T13:58:17;2;2;
80643;PMS5003;70010;60.224;24.712;2023-07-09T14:00:42;2;2;
80643;PMS5003;70010;60.224;24.712;2023-07-09T14:03:08;2;2;
80643;PMS5003;70010;60.224;24.712;2023-07-09T14:05:32;3;3;
80643;PMS5003;70010;60.224;24.712;2023-07-09T14:07:57;4;4;
80643;PMS5003;70010;60.224;24.712;2023-07-09T14:10:23;2;2;
80643;PMS5003;70010;60.224;24.712;2023-07-09T14:12:48;3;3;
80643;PMS5003;70010;60.224;24.712;2023-07-09T14:15:15;2;2;
80643;PMS5003;70010;60.224;24.712;2023-07-09T14:17:39;2;2;
80643;PMS5003;70010;60.224;24.712;2023-07-09T14:20:04;2;2;
80643;PMS5003;70010;60.224;24.712;2023-07-09T14:22:30;2;2;
80643;PMS5003;70010;60.224;24.712;2023-07-09T14:24:54;3;3;
80643;PMS5003;70010;60.224;24.712;2023-07-09T14:27:20;4;4;
80643;PMS5003;70010;60.224;24.712;2023-07-09T14:29:45;3;3;
80643;PMS5003;70010;60.224;24.712;2023-07-09T14:32:20;4;4;
80643;PMS5003;70010;60.224;24.712;2023-07-09T14:34:35;3;3;
80643;PMS5003;70010;60.224;24.712;2023-07-09T14:37:01;2;2;
80643;PMS5003;70010;60.224;24.712;2023-07-09T14:39:26;2;2;
80643;PMS5003;70010;60.224;24.712;2023-07-09T14:41:51;2;2;
80643;PMS5003;70010;60.224;24.712;2023-07-09T14:44:19;4;4;
80643;PMS5003;70010;60.224;24.712;2023-07-09T14:46:42;5;3;
80643;PMS5003;70010;60.224;24.712;2023-07-09T14:49:07;3;3;
80643;PMS5003;70010;60.224;24.712;2023-07-09T14:51:33;3;2;
80643;PMS5003;70010;60.224;24.712;2023-07-09T14:53:58;2;2;
80643;PMS5003;70010;60.224;24.712;2023-07-09T14:56:23;1;1;
80643;PMS5003;70010;60.224;24.712;2023-07-09T14:58:49;3;3;
80643;PMS5003;70010;60.224;24.712;2023-07-09T15:01:14;2;2;
80643;PMS5003;70010;60.224;24.712;2023-07-09T15:03:39;2;2;
80643;PMS5003;70010;60.224;24.712;2023-07-09T15:06:04;2;2;
80643;PMS5003;70010;60.224;24.712;2023-07-09T15:08:30;4;3;
80643;PMS5003;70010;60.224;24.712;2023-07-09T15:10:55;2;2;
80643;PMS5003;70010;60.224;24.712;2023-07-09T15:13:23;2;2;
80643;PMS5003;70010;60.224;24.712;2023-07-09T15:15:45;3;3;
80643;PMS5003;70010;60.224;24.712;2023-07-09T15:18:11;3;3;
80643;PMS5003;70010;60.224;24.712;2023-07-09T15:20:36;4;4;
80643;PMS5003;70010;60.224;24.712;2023-07-09T15:23:01;3;1;
80643;PMS5003;70010;60.224;24.712;2023-07-09T15:25:27;3;3;
80643;PMS5003;70010;60.224;24.712;2023-07-09T15:27:52;3;3;
80643;PMS5003;70010;60.224;24.712;2023-07-09T15:30:18;4;3;
80643;PMS5003;70010;60.224;24.712;2023-07-09T15:32:43;4;4;
80643;PMS5003;70010;60.224;24.712;2023-07-09T15:35:07;3;3;
80643;PMS5003;70010;60.224;24.712;2023-07-09T15:37:33;3;3;
80643;PMS5003;70010;60.224;24.712;2023-07-09T15:39:58;3;3;
80643;PMS5003;70010;60.224;24.712;2023-07-09T15:42:23;3;3;
80643;PMS5003;70010;60.224;24.712;2023-07-09T15:44:48;2;2;
80643;PMS5003;70010;60.224;24.712;2023-07-09T15:47:16;2;2;
80643;PMS5003;70010;60.224;24.712;2023-07-09T15:49:39;3;3;
80643;PMS5003;70010;60.224;24.712;2023-07-09T15:52:04;2;2;
80643;PMS5003;70010;60.224;24.712;2023-07-09T15:54:29;2;2;
80643;PMS5003;70010;60.224;24.712;2023-07-09T15:56:55;3;3;
80643;PMS5003;70010;60.224;24.712;2023-07-09T15:59:24;3;3;
80643;PMS5003;70010;60.224;24.712;2023-07-09T16:01:45;3;3;
80643;PMS5003;70010;60.224;24.712;2023-07-09T16:04:10;2;2;
80643;PMS5003;70010;60.224;24.712;2023-07-09T16:06:36;3;2;
80643;PMS5003;70010;60.224;24.712;2023-07-09T16:09:02;9;8;
80643;PMS5003;70010;60.224;24.712;2023-07-09T16:11:27;2;2;
80643;PMS5003;70010;60.224;24.712;2023-07-09T16:13:52;1;1;
80643;PMS5003;70010;60.224;24.712;2023-07-09T16:16:19;4;3;
80643;PMS5003;70010;60.224;24.712;2023-07-09T16:18:42;3;3;
80643;PMS5003;70010;60.224;24.712;2023-07-09T16:21:11;3;3;
80643;PMS5003;70010;60.224;24.712;2023-07-09T16:23:33;3;3;
80643;PMS5003;70010;60.224;24.712;2023-07-09T16:25:58;3;3;
80643;PMS5003;70010;60.224;24.712;2023-07-09T16:28:23;5;4;
80643;PMS5003;70010;60.224;24.712;2023-07-09T16:30:49;2;2;